Time;durP1;ratioP1;P1;durP2;ratioP2;P2;SDS_P1;SDS_P2;PMS_P1;PMS_P2;Temp;Humidity;BMP_temperature;BMP_pressure;BME280_temperature;BME280_humidity;BME280_pressure;Samples;Min_cycle;Max_cycle;Signal;HPM_P1;HPM_P2
2023/03/23 00:01:22;;;;;;;0.88;0.55;;;;;;;4.86;100.00;98044.59;5035605;28;20037;-79
2023/03/23 00:03:51;;;;;;;0.40;0.40;;;;;;;4.89;100.00;98038.06;5019597;28;20116;-78
2023/03/23 00:06:18;;;;;;;0.50;0.50;;;;;;;4.85;100.00;98038.47;5035552;28;20025;-77
2023/03/23 00:08:49;;;;;;;0.40;0.40;;;;;;;4.83;100.00;98039.69;5035269;28;20072;-77
2023/03/23 00:11:18;;;;;;;0.40;0.40;;;;;;;4.77;100.00;98041.34;5034828;28;20048;-77
2023/03/23 00:13:45;;;;;;;0.40;0.40;;;;;;;4.85;100.00;98046.44;5019060;28;20052;-77
2023/03/23 00:16:17;;;;;;;0.40;0.40;;;;;;;4.86;100.00;98036.63;5035024;28;20095;-77
2023/03/23 00:18:49;;;;;;;0.40;0.40;;;;;;;4.91;100.00;98039.47;5035034;28;20083;-77
2023/03/23 00:21:15;;;;;;;0.40;0.40;;;;;;;4.93;100.00;98037.44;5019123;28;20525;-77
2023/03/23 00:23:44;;;;;;;0.40;0.40;;;;;;;4.93;100.00;98029.44;5018535;28;20029;-77
2023/03/23 00:26:13;;;;;;;0.40;0.40;;;;;;;4.98;100.00;98031.50;5019365;28;20198;-77
2023/03/23 00:28:39;;;;;;;0.40;0.40;;;;;;;5.03;100.00;98021.88;5002339;28;20458;-78
2023/03/23 00:31:09;;;;;;;0.50;0.50;;;;;;;5.05;100.00;98026.97;5034937;28;20484;-78
2023/03/23 00:33:40;;;;;;;0.40;0.40;;;;;;;5.07;100.00;98027.59;5002376;28;20029;-77
2023/03/23 00:36:08;;;;;;;0.40;0.40;;;;;;;5.03;100.00;98023.72;5002581;28;20499;-77
2023/03/23 00:38:34;;;;;;;0.40;0.40;;;;;;;5.09;100.00;98014.06;5018496;28;20079;-79
2023/03/23 00:41:02;;;;;;;0.40;0.40;;;;;;;5.05;100.00;98010.97;5034587;28;20064;-78
2023/03/23 00:43:29;;;;;;;0.40;0.40;;;;;;;5.03;100.00;97991.75;5035725;28;20021;-78
2023/03/23 00:45:56;;;;;;;0.50;0.50;;;;;;;5.07;100.00;97998.28;4985794;28;20399;-79
2023/03/23 00:48:23;;;;;;;0.43;0.43;;;;;;;5.01;100.00;97983.97;5034701;28;20033;-78
2023/03/23 00:50:49;;;;;;;0.40;0.40;;;;;;;4.98;100.00;97972.91;5001562;28;20388;-78
2023/03/23 00:53:15;;;;;;;0.40;0.40;;;;;;;5.01;100.00;97983.16;5034309;28;20034;-77
2023/03/23 00:55:42;;;;;;;0.50;0.50;;;;;;;4.98;100.00;97978.25;5018391;28;20026;-78
2023/03/23 00:58:10;;;;;;;0.40;0.40;;;;;;;4.97;100.00;97982.72;5001227;28;20045;-77
2023/03/23 01:00:39;;;;;;;0.40;0.40;;;;;;;4.93;100.00;97981.53;5033780;28;20030;-78
2023/03/23 01:03:11;;;;;;;0.40;0.40;;;;;;;4.96;100.00;97981.09;5034036;28;20029;-77
2023/03/23 01:05:38;;;;;;;0.40;0.40;;;;;;;5.09;100.00;97992.75;5034493;28;20029;-77
2023/03/23 01:08:04;;;;;;;0.43;0.43;;;;;;;5.09;100.00;97988.25;5033971;28;20029;-79
2023/03/23 01:10:32;;;;;;;0.40;0.40;;;;;;;5.15;100.00;97994.59;5033893;28;20033;-77
2023/03/23 01:13:01;;;;;;;0.40;0.40;;;;;;;5.11;100.00;97983.53;5034310;28;20033;-77
2023/03/23 01:15:31;;;;;;;0.40;0.40;;;;;;;5.16;100.00;97999.72;5017492;28;20037;-77
2023/03/23 01:18:01;;;;;;;0.60;0.50;;;;;;;5.17;100.00;97998.69;5001630;28;20033;-77
2023/03/23 01:20:31;;;;;;;0.40;0.40;;;;;;;5.17;100.00;97988.03;5033793;28;20025;-79
2023/03/23 01:23:00;;;;;;;0.40;0.40;;;;;;;5.09;100.00;97974.13;5034100;28;20026;-77
2023/03/23 01:25:31;;;;;;;0.40;0.40;;;;;;;5.17;100.00;97977.38;5017366;28;20430;-77
2023/03/23 01:28:01;;;;;;;0.40;0.40;;;;;;;5.18;100.00;97991.50;5017116;28;20025;-77
2023/03/23 01:30:27;;;;;;;0.40;0.40;;;;;;;5.13;100.00;97980.66;5033691;28;20040;-77
2023/03/23 01:32:55;;;;;;;0.40;0.40;;;;;;;5.09;100.00;97985.59;5033989;28;20365;-77
2023/03/23 01:35:21;;;;;;;0.40;0.40;;;;;;;5.13;100.00;97994.78;5000895;28;20445;-77
2023/03/23 01:37:47;;;;;;;0.40;0.40;;;;;;;5.13;100.00;98000.09;5017311;28;20057;-77
2023/03/23 01:40:18;;;;;;;0.40;0.40;;;;;;;5.14;100.00;98006.28;5016876;28;20064;-79
2023/03/23 01:42:44;;;;;;;0.40;0.40;;;;;;;5.10;100.00;98000.53;5017282;28;20525;-78
2023/03/23 01:45:19;;;;;;;0.40;0.40;;;;;;;5.05;100.00;97993.19;5033645;28;20102;-78
2023/03/23 01:48:05;;;;;;;0.40;0.40;;;;;;;5.00;100.00;97994.81;5033533;28;20029;-77
2023/03/23 01:50:36;;;;;;;0.40;0.40;;;;;;;5.01;100.00;97993.81;5045364;28;20068;-77
2023/03/23 01:53:08;;;;;;;0.40;0.40;;;;;;;5.05;100.00;97997.66;5017597;28;20087;-78
2023/03/23 01:55:35;;;;;;;0.40;0.40;;;;;;;5.09;100.00;97992.75;5017432;28;20033;-77
2023/03/23 01:58:00;;;;;;;0.40;0.40;;;;;;;5.12;100.00;97979.03;5016871;28;20063;-77
2023/03/23 02:00:26;;;;;;;0.40;0.40;;;;;;;5.15;100.00;97978.59;5017031;28;20472;-77
2023/03/23 02:02:53;;;;;;;0.50;0.50;;;;;;;5.20;100.00;97979.59;5033040;28;20025;-78
2023/03/23 02:05:33;;;;;;;0.40;0.40;;;;;;;5.21;100.00;97977.75;5033296;28;20037;-76
2023/03/23 02:08:08;;;;;;;0.50;0.50;;;;;;;5.19;100.00;97972.66;5000964;28;20100;-77
2023/03/23 02:10:35;;;;;;;0.40;0.40;;;;;;;5.28;100.00;97982.03;5032846;28;20037;-77
2023/03/23 02:13:04;;;;;;;0.40;0.40;;;;;;;5.27;100.00;97969.75;5015907;28;20369;-76
2023/03/23 02:16:02;;;;;;;0.40;0.40;;;;;;;5.28;100.00;97965.25;5032885;28;20064;-77
2023/03/23 02:18:58;;;;;;;0.40;0.40;;;;;;;5.30;100.00;97968.53;5033073;28;20056;-77
2023/03/23 02:21:45;;;;;;;0.40;0.40;;;;;;;5.19;100.00;97946.03;5016728;28;20052;-77
2023/03/23 02:24:14;;;;;;;0.40;0.40;;;;;;;5.13;100.00;97944.16;5034086;28;20033;-77
2023/03/23 02:26:58;;;;;;;0.40;0.40;;;;;;;4.97;100.00;97928.66;5033691;28;20113;-77
2023/03/23 02:29:30;;;;;;;0.40;0.40;;;;;;;4.94;100.00;97921.09;5032886;28;20108;-77
2023/03/23 02:32:02;;;;;;;0.40;0.40;;;;;;;5.20;100.00;97957.47;5032695;28;20281;-76
2023/03/23 02:34:54;;;;;;;0.50;0.50;;;;;;;5.25;100.00;97950.50;5016674;28;20472;-77
2023/03/23 02:37:52;;;;;;;0.40;0.40;;;;;;;5.32;100.00;97954.97;5031270;28;20112;-77
2023/03/23 02:40:26;;;;;;;0.40;0.40;;;;;;;5.33;100.00;97953.97;5024069;28;20125;-77
2023/03/23 02:42:54;;;;;;;0.40;0.40;;;;;;;5.34;100.00;97953.72;5032691;28;20038;-77
2023/03/23 02:45:20;;;;;;;0.50;0.50;;;;;;;5.39;100.00;97939.78;5000013;28;20029;-77
2023/03/23 02:47:52;;;;;;;0.47;0.47;;;;;;;5.41;100.00;97956.38;5015592;28;20025;-77
2023/03/23 02:50:22;;;;;;;0.40;0.40;;;;;;;5.43;100.00;97951.66;5032440;28;20441;-77
2023/03/23 02:52:50;;;;;;;0.40;0.40;;;;;;;5.48;100.00;97960.66;5032618;28;20037;-77
2023/03/23 02:55:18;;;;;;;0.40;0.40;;;;;;;5.46;100.00;97951.25;5000176;28;20037;-77
2023/03/23 02:57:47;;;;;;;0.40;0.40;;;;;;;5.49;100.00;97956.16;4983839;28;20491;-76
2023/03/23 03:00:15;;;;;;;0.50;0.50;;;;;;;5.54;100.00;97960.84;4999774;28;20041;-77
2023/03/23 03:02:47;;;;;;;0.40;0.40;;;;;;;5.48;100.00;97947.34;5015993;28;20087;-77
2023/03/23 03:05:34;;;;;;;0.40;0.40;;;;;;;5.50;100.00;97953.28;5015847;28;20029;-76
2023/03/23 03:08:39;;;;;;;0.40;0.40;;;;;;;5.43;100.00;97938.34;5033322;28;20112;-77
2023/03/23 03:11:10;;;;;;;0.40;0.40;;;;;;;5.49;100.00;97967.63;5032278;28;20087;-80
2023/03/23 03:13:48;;;;;;;0.40;0.40;;;;;;;5.53;100.00;97954.72;5032411;28;20037;-78
2023/03/23 03:16:34;;;;;;;0.40;0.40;;;;;;;5.50;100.00;97953.28;5048968;28;20041;-78
2023/03/23 03:19:12;;;;;;;0.50;0.50;;;;;;;5.55;100.00;97960.63;5016519;28;20124;-78
2023/03/23 03:21:47;;;;;;;0.40;0.40;;;;;;;5.53;100.00;97960.03;5032338;28;20041;-78
2023/03/23 03:24:19;;;;;;;0.40;0.40;;;;;;;5.56;100.00;97956.09;5034714;28;20491;-79
2023/03/23 03:26:47;;;;;;;0.40;0.40;;;;;;;5.58;100.00;97959.38;5020169;28;20080;-78
2023/03/23 03:29:24;;;;;;;0.40;0.40;;;;;;;5.56;100.00;97954.28;5035867;28;20035;-78
2023/03/23 03:31:55;;;;;;;0.40;0.40;;;;;;;5.56;100.00;97956.94;5003346;28;20025;-79
2023/03/23 03:34:24;;;;;;;0.40;0.40;;;;;;;5.51;100.00;97943.44;5003677;28;20044;-78
2023/03/23 03:36:51;;;;;;;0.47;0.47;;;;;;;5.46;100.00;97938.72;5035925;28;20025;-78
2023/03/23 03:39:21;;;;;;;0.50;0.50;;;;;;;5.38;100.00;97943.50;5035982;28;20095;-77
2023/03/23 03:41:50;;;;;;;0.40;0.40;;;;;;;5.33;100.00;97932.66;5035900;28;20084;-78
2023/03/23 03:44:16;;;;;;;0.40;0.40;;;;;;;5.23;100.00;97925.09;5019784;28;20564;-77
2023/03/23 03:46:42;;;;;;;0.40;0.40;;;;;;;5.17;100.00;97932.09;5036511;28;20108;-77
2023/03/23 03:49:10;;;;;;;0.50;0.50;;;;;;;5.10;100.00;97923.28;5003039;28;20037;-77
2023/03/23 03:51:36;;;;;;;0.45;0.45;;;;;;;5.20;100.00;97931.66;5035336;28;20556;-77
2023/03/23 03:54:02;;;;;;;0.40;0.40;;;;;;;5.05;100.00;97926.59;5003428;28;20124;-77
2023/03/23 03:56:30;;;;;;;0.40;0.40;;;;;;;4.91;100.00;97913.53;5035397;28;20104;-77
2023/03/23 03:58:58;;;;;;;0.40;0.40;;;;;;;4.98;100.00;97927.66;5035324;28;20429;-77
2023/03/23 04:01:26;;;;;;;0.47;0.47;;;;;;;5.10;100.00;97925.94;5035635;28;20037;-77
2023/03/23 04:03:51;;;;;;;0.40;0.40;;;;;;;5.19;100.00;97926.56;5035160;28;20368;-77
2023/03/23 04:06:17;;;;;;;0.40;0.40;;;;;;;4.98;100.00;97923.13;5019113;28;20083;-77
2023/03/23 04:08:46;;;;;;;0.40;0.40;;;;;;;4.97;100.00;97920.66;5002740;28;20041;-77
2023/03/23 04:11:13;;;;;;;0.50;0.50;;;;;;;5.11;100.00;97921.44;5035289;28;20060;-77
2023/03/23 04:13:43;;;;;;;0.40;0.40;;;;;;;5.22;100.00;97918.97;5019221;28;20499;-78
2023/03/23 04:16:11;;;;;;;0.40;0.40;;;;;;;5.32;100.00;97928.31;5035009;28;20083;-77
2023/03/23 04:18:37;;;;;;;0.40;0.40;;;;;;;5.27;100.00;97929.78;5035382;28;20099;-77
2023/03/23 04:21:03;;;;;;;0.50;0.50;;;;;;;5.22;100.00;97931.47;5035263;28;20033;-78
2023/03/23 04:23:33;;;;;;;0.40;0.40;;;;;;;5.20;100.00;97909.53;5018712;28;20460;-77
2023/03/23 04:25:59;;;;;;;0.40;0.40;;;;;;;5.31;100.00;97910.72;5035887;28;20388;-77
2023/03/23 04:28:26;;;;;;;0.40;0.40;;;;;;;5.41;100.00;97921.75;5035173;28;20049;-77
2023/03/23 04:31:04;;;;;;;0.40;0.40;;;;;;;5.38;100.00;97914.19;5036071;28;20029;-78
2023/03/23 04:33:30;;;;;;;0.40;0.40;;;;;;;5.41;100.00;97921.75;5002348;28;20040;-80
2023/03/23 04:35:57;;;;;;;0.50;0.50;;;;;;;5.39;100.00;97924.59;5033958;28;20033;-77
2023/03/23 04:38:24;;;;;;;0.40;0.40;;;;;;;5.43;100.00;97919.69;5002103;28;20037;-77
2023/03/23 04:40:52;;;;;;;0.40;0.40;;;;;;;5.41;100.00;97919.91;5034645;28;20029;-77
2023/03/23 04:43:22;;;;;;;0.40;0.40;;;;;;;5.49;100.00;97919.66;5018031;28;20504;-77
2023/03/23 04:45:56;;;;;;;0.40;0.40;;;;;;;5.70;100.00;97928.34;5018448;28;20030;-78
2023/03/23 04:48:29;;;;;;;0.47;0.47;;;;;;;5.79;100.00;97916.41;5001944;28;20029;-78
2023/03/23 04:51:03;;;;;;;0.40;0.40;;;;;;;5.91;100.00;97936.03;5018643;28;20029;-77
2023/03/23 04:53:30;;;;;;;0.50;0.50;;;;;;;5.94;100.00;97929.47;5002424;28;20037;-78
2023/03/23 04:56:00;;;;;;;0.50;0.50;;;;;;;6.00;100.00;97919.78;5017722;28;20468;-78
2023/03/23 04:58:27;;;;;;;0.50;0.50;;;;;;;6.04;100.00;97929.00;5034378;28;20029;-78
2023/03/23 05:00:53;;;;;;;0.40;0.40;;;;;;;5.97;100.00;97921.03;5001592;28;20083;-78
2023/03/23 05:03:19;;;;;;;0.40;0.40;;;;;;;5.85;100.00;97920.09;5017757;28;20029;-78
2023/03/23 05:05:47;;;;;;;0.50;0.50;;;;;;;5.70;100.00;97921.19;5001441;28;20033;-78
2023/03/23 05:08:16;;;;;;;0.40;0.40;;;;;;;5.62;100.00;97925.94;5018052;28;20527;-78
2023/03/23 05:10:42;;;;;;;0.40;0.40;;;;;;;5.54;100.00;97920.88;5033949;28;20033;-78
2023/03/23 05:13:08;;;;;;;0.40;0.40;;;;;;;5.42;100.00;97924.19;5034172;28;20033;-77
2023/03/23 05:15:33;;;;;;;0.40;0.40;;;;;;;5.37;100.00;97923.19;5017812;28;20025;-78
2023/03/23 05:17:59;;;;;;;0.40;0.40;;;;;;;5.25;100.00;97928.38;5017775;28;20116;-77
2023/03/23 05:20:25;;;;;;;0.40;0.40;;;;;;;5.07;100.00;97921.88;5034273;28;20113;-78
2023/03/23 05:22:51;;;;;;;0.40;0.40;;;;;;;5.12;100.00;97923.91;5033765;28;20467;-77
2023/03/23 05:25:23;;;;;;;0.40;0.40;;;;;;;5.24;100.00;97924.91;5017556;28;20030;-77
2023/03/23 05:27:52;;;;;;;0.40;0.40;;;;;;;5.32;100.00;97923.84;5002185;28;20029;-77
2023/03/23 05:30:19;;;;;;;0.50;0.50;;;;;;;5.36;100.00;97930.38;5034041;28;20036;-77
2023/03/23 05:32:50;;;;;;;0.40;0.40;;;;;;;5.27;100.00;97921.81;5017155;28;20033;-77
2023/03/23 05:35:20;;;;;;;0.40;0.40;;;;;;;5.27;100.00;97921.81;5001362;28;20034;-77
2023/03/23 05:37:46;;;;;;;0.40;0.40;;;;;;;5.28;100.00;97930.59;5017288;28;20361;-78
2023/03/23 05:40:12;;;;;;;0.40;0.40;;;;;;;5.31;100.00;97919.53;5033368;28;20028;-77
2023/03/23 05:42:41;;;;;;;0.40;0.40;;;;;;;5.31;100.00;97932.84;5033747;28;20137;-77
2023/03/23 05:45:10;;;;;;;0.40;0.40;;;;;;;5.24;100.00;97919.56;5001633;28;20033;-77
2023/03/23 05:47:37;;;;;;;0.40;0.40;;;;;;;5.25;100.00;97921.19;5033772;28;20029;-80
2023/03/23 05:50:05;;;;;;;0.38;0.38;;;;;;;5.19;100.00;97911.38;5033135;28;20060;-78
2023/03/23 05:52:32;;;;;;;0.40;0.40;;;;;;;5.09;100.00;97913.69;5017170;28;20029;-77
2023/03/23 05:54:58;;;;;;;0.40;0.40;;;;;;;5.12;100.00;97913.25;5017063;28;20056;-78
2023/03/23 05:57:24;;;;;;;0.40;0.40;;;;;;;5.14;100.00;97916.53;5033158;28;20044;-78
2023/03/23 05:59:50;;;;;;;0.40;0.40;;;;;;;5.21;100.00;97922.66;5034023;28;20388;-77
2023/03/23 06:02:17;;;;;;;0.40;0.40;;;;;;;5.15;100.00;97915.50;5015974;28;20034;-79
2023/03/23 06:04:44;;;;;;;0.40;0.40;;;;;;;5.17;100.00;97918.75;5031954;28;20045;-76
2023/03/23 06:07:13;;;;;;;0.40;0.40;;;;;;;5.15;100.00;97912.81;5017185;28;20040;-80
2023/03/23 06:09:40;;;;;;;0.40;0.40;;;;;;;5.05;100.00;97910.63;5033446;28;20079;-78
2023/03/23 06:12:06;;;;;;;0.40;0.40;;;;;;;5.00;100.00;97915.75;5032861;28;20033;-78
2023/03/23 06:14:32;;;;;;;0.40;0.40;;;;;;;5.00;100.00;97914.91;5000261;28;20423;-78
2023/03/23 06:16:57;;;;;;;0.40;0.40;;;;;;;5.08;100.00;97914.72;5032666;28;20082;-78
2023/03/23 06:19:23;;;;;;;0.40;0.40;;;;;;;4.99;100.00;97916.78;5032864;28;20079;-77
2023/03/23 06:21:49;;;;;;;0.57;0.40;;;;;;;5.15;100.00;97920.00;5016849;28;20064;-78
2023/03/23 06:24:15;;;;;;;0.45;0.45;;;;;;;5.17;100.00;97916.09;5016561;28;20036;-78
2023/03/23 06:26:41;;;;;;;0.40;0.40;;;;;;;5.14;100.00;97921.84;5034233;28;20033;-77
2023/03/23 06:29:10;;;;;;;0.40;0.40;;;;;;;5.11;100.00;97913.44;5000034;28;20107;-78
2023/03/23 06:31:43;;;;;;;0.40;0.40;;;;;;;5.04;100.00;97916.97;5032514;28;20032;-77
2023/03/23 06:34:09;;;;;;;0.40;0.40;;;;;;;4.99;100.00;97911.44;5000108;28;20044;-78
2023/03/23 06:36:36;;;;;;;0.40;0.40;;;;;;;4.97;100.00;97907.34;5016531;28;20546;-78
2023/03/23 06:39:04;;;;;;;0.50;0.50;;;;;;;4.90;100.00;97903.91;5016299;28;20041;-78
2023/03/23 06:41:33;;;;;;;0.40;0.40;;;;;;;4.92;100.00;97908.00;5000481;28;20101;-79
2023/03/23 06:44:00;;;;;;;0.40;0.40;;;;;;;4.98;100.00;97927.66;5016147;28;20126;-79
2023/03/23 06:46:26;;;;;;;0.40;0.40;;;;;;;4.95;100.00;97899.59;5032326;28;20027;-79
2023/03/23 06:48:52;;;;;;;0.40;0.40;;;;;;;5.05;100.00;97921.28;5032661;28;20033;-78
2023/03/23 06:51:18;;;;;;;0.40;0.40;;;;;;;5.03;100.00;97915.34;5032445;28;20045;-78
2023/03/23 06:53:44;;;;;;;0.40;0.40;;;;;;;5.03;100.00;97909.19;4999944;28;20044;-77
2023/03/23 06:56:11;;;;;;;0.40;0.40;;;;;;;5.18;100.00;97912.41;5016310;28;20037;-80
2023/03/23 06:58:37;;;;;;;0.40;0.40;;;;;;;5.27;100.00;97911.16;4999632;28;20034;-80
2023/03/23 07:01:03;;;;;;;0.40;0.40;;;;;;;5.42;100.00;97912.72;5016096;28;20395;-79
2023/03/23 07:03:30;;;;;;;0.50;0.50;;;;;;;5.53;100.00;97912.06;5016249;28;20041;-77
2023/03/23 07:05:58;;;;;;;0.50;0.50;;;;;;;5.68;100.00;97917.91;5032462;28;20091;-76
2023/03/23 07:08:24;;;;;;;0.50;0.50;;;;;;;5.76;100.00;97916.03;5033395;28;20063;-79
2023/03/23 07:10:52;;;;;;;0.40;0.40;;;;;;;5.90;100.00;97914.88;5015959;28;20032;-79
2023/03/23 07:13:18;;;;;;;0.47;0.47;;;;;;;5.96;100.00;97926.59;5032360;28;20030;-78
2023/03/23 07:15:44;;;;;;;0.40;0.40;;;;;;;6.05;100.00;97923.44;4999747;28;20537;-78
2023/03/23 07:18:11;;;;;;;0.50;0.50;;;;;;;6.18;100.00;97922.53;5032141;28;20029;-78
2023/03/23 07:20:37;;;;;;;0.40;0.40;;;;;;;6.45;100.00;97916.97;5032125;28;20464;-79
2023/03/23 07:23:05;;;;;;;0.50;0.50;;;;;;;6.67;100.00;97930.72;5015795;28;20095;-78
2023/03/23 07:25:32;;;;;;;0.50;0.50;;;;;;;6.79;100.00;97928.97;5031902;28;20048;-78
2023/03/23 07:28:00;;;;;;;0.50;0.50;;;;;;;6.85;100.00;97916.59;5016134;28;20034;-78
2023/03/23 07:30:26;;;;;;;0.45;0.45;;;;;;;6.89;100.00;97929.28;5016101;28;20051;-78
2023/03/23 07:32:52;;;;;;;0.40;0.40;;;;;;;7.17;100.00;97930.63;5032063;28;20460;-79
2023/03/23 07:35:18;;;;;;;0.50;0.50;;;;;;;7.50;100.00;97919.53;5015642;28;20480;-78
2023/03/23 07:37:45;;;;;;;0.50;0.50;;;;;;;7.82;100.00;97908.63;5032953;28;20120;-78
2023/03/23 07:40:14;;;;;;;0.50;0.50;;;;;;;8.16;100.00;97933.84;5015367;28;20040;-78
2023/03/23 07:42:45;;;;;;;0.47;0.47;;;;;;;7.75;100.00;97935.44;5031751;28;20108;-77
2023/03/23 07:45:12;;;;;;;0.40;0.40;;;;;;;7.45;100.00;97936.25;5032227;28;20108;-78
2023/03/23 07:47:39;;;;;;;0.40;0.40;;;;;;;7.37;100.00;97925.88;5015289;28;20464;-77
2023/03/23 07:50:06;;;;;;;0.40;0.40;;;;;;;7.56;100.00;97932.00;4999322;28;20084;-77
2023/03/23 07:52:32;;;;;;;0.40;0.40;;;;;;;7.65;100.00;97924.50;5015396;28;20038;-78
2023/03/23 07:54:58;;;;;;;0.45;0.45;;;;;;;7.56;100.00;97915.16;4999275;28;20032;-77
2023/03/23 07:57:24;;;;;;;0.40;0.40;;;;;;;7.63;100.00;97934.59;5031594;28;20026;-77
2023/03/23 07:59:50;;;;;;;0.40;0.40;;;;;;;7.59;100.00;97931.53;5015462;28;20040;-77
2023/03/23 08:02:16;;;;;;;0.40;0.40;;;;;;;7.58;100.00;97942.47;5015654;28;20053;-77
2023/03/23 08:04:44;;;;;;;0.47;0.47;;;;;;;7.54;100.00;97925.25;5033020;28;20112;-79
2023/03/23 08:07:16;;;;;;;0.40;0.40;;;;;;;7.57;100.00;97932.81;4999286;28;20025;-79
2023/03/23 08:09:45;;;;;;;0.50;0.50;;;;;;;7.69;100.00;97933.69;5015491;28;20033;-79
2023/03/23 08:12:11;;;;;;;0.50;0.50;;;;;;;8.05;100.00;97926.59;5018907;28;20025;-78
2023/03/23 08:14:38;;;;;;;0.40;0.40;;;;;;;9.26;100.00;97918.94;5035519;28;20099;-78
2023/03/23 08:17:04;;;;;;;0.50;0.50;;;;;;;9.46;100.00;97926.59;5035311;28;20125;-77
2023/03/23 08:19:30;;;;;;;0.43;0.43;;;;;;;9.49;100.00;97919.94;5018801;28;20104;-77
2023/03/23 08:21:59;;;;;;;0.40;0.40;;;;;;;8.79;100.00;97927.06;5002593;28;20037;-79
2023/03/23 08:24:26;;;;;;;0.40;0.40;;;;;;;8.02;100.00;97911.81;5034903;28;20475;-77
2023/03/23 08:26:52;;;;;;;1.20;0.60;;;;;;;7.62;100.00;97925.78;5035168;28;20491;-77
2023/03/23 08:29:17;;;;;;;0.47;0.47;;;;;;;7.33;100.00;97914.00;5018855;28;20037;-78
2023/03/23 08:31:44;;;;;;;0.40;0.40;;;;;;;7.29;100.00;97933.38;5018565;28;20029;-78
2023/03/23 08:34:10;;;;;;;0.40;0.40;;;;;;;7.32;100.00;97927.59;5035065;28;20037;-78
2023/03/23 08:36:37;;;;;;;0.50;0.50;;;;;;;7.66;100.00;97932.28;5018663;28;20039;-76
2023/03/23 08:39:05;;;;;;;0.60;0.60;;;;;;;8.74;100.00;97935.81;5035179;28;20499;-77
2023/03/23 08:41:31;;;;;;;0.50;0.50;;;;;;;9.04;100.00;97916.09;5018328;28;20472;-77
2023/03/23 08:43:57;;;;;;;0.50;0.50;;;;;;;8.82;100.00;97939.19;5034769;28;20033;-78
2023/03/23 08:46:23;;;;;;;0.43;0.43;;;;;;;8.52;100.00;97926.69;5002222;28;20111;-79
2023/03/23 08:48:48;;;;;;;0.60;0.60;;;;;;;8.68;100.00;97941.25;5034582;28;20460;-79
2023/03/23 08:51:14;;;;;;;0.40;0.40;;;;;;;8.30;100.00;97924.53;5034451;28;20034;-76
2023/03/23 08:53:41;;;;;;;0.40;0.40;;;;;;;8.55;100.00;97932.41;5034701;28;20021;-76
2023/03/23 08:56:10;;;;;;;0.50;0.50;;;;;;;9.10;100.00;97923.16;5034306;28;20473;-76
2023/03/23 08:58:36;;;;;;;0.80;0.80;;;;;;;12.66;100.00;97926.97;5001981;28;20030;-76
2023/03/23 09:01:03;;;;;;;0.85;0.85;;;;;;;12.02;100.00;97938.53;5000656;28;20060;-77
2023/03/23 09:03:29;;;;;;;0.65;0.65;;;;;;;11.85;100.00;97934.03;5034213;28;20430;-76
2023/03/23 09:13:53;;;;;;;4.68;1.25;;;;;;;13.94;100.00;97935.69;5035358;28;20083;-77
2023/03/23 09:16:19;;;;;;;1.67;1.10;;;;;;;12.77;100.00;97934.03;5015655;28;20472;-77
2023/03/23 09:18:46;;;;;;;3.80;1.40;;;;;;;14.84;100.00;97921.69;5031520;28;20026;-76
2023/03/23 09:21:14;;;;;;;4.07;1.70;;;;;;;17.53;90.13;97912.03;5015259;28;20092;-76
2023/03/23 09:23:43;;;;;;;3.50;1.40;;;;;;;18.68;81.23;97905.47;5034031;28;20037;-76
2023/03/23 09:26:11;;;;;;;4.72;1.67;;;;;;;19.31;76.24;97910.34;5033465;28;20044;-78
2023/03/23 09:28:36;;;;;;;4.80;1.27;;;;;;;19.61;75.22;97894.50;5033954;28;20033;-78
2023/03/23 09:31:05;;;;;;;3.15;1.27;;;;;;;20.39;74.08;97913.50;5015642;28;20051;-81
2023/03/23 09:33:33;;;;;;;5.30;1.40;;;;;;;20.05;71.77;97908.56;5015809;28;20037;-78
2023/03/23 09:36:00;;;;;;;3.22;1.20;;;;;;;20.08;74.85;97908.75;5015994;28;20033;-79
2023/03/23 09:38:26;;;;;;;6.18;2.17;;;;;;;20.62;69.63;97903.41;5032510;28;20460;-77
2023/03/23 09:41:39;;;;;;;7.60;1.77;;;;;;;18.56;76.59;97918.75;5031979;28;20087;-79
2023/03/23 09:44:19;;;;;;;4.45;1.67;;;;;;;16.73;82.69;97906.38;5013827;28;20141;-79
2023/03/23 09:46:59;;;;;;;4.63;1.33;;;;;;;15.73;91.87;97920.09;5033341;28;20021;-79
2023/03/23 09:49:28;;;;;;;3.92;1.52;;;;;;;15.43;92.10;97921.03;5017039;28;20369;-77
2023/03/23 09:52:03;;;;;;;2.72;1.33;;;;;;;14.77;97.73;97918.50;5033343;28;20480;-78
2023/03/23 09:54:30;;;;;;;4.18;1.52;;;;;;;14.26;100.00;97925.50;5033505;28;20026;-77
2023/03/23 09:56:58;;;;;;;5.13;1.67;;;;;;;16.44;89.06;97931.56;5016914;28;20040;-77
2023/03/23 09:59:40;;;;;;;5.53;1.70;;;;;;;17.89;83.06;97927.91;5033572;28;20492;-78
2023/03/23 10:02:27;;;;;;;3.75;1.25;;;;;;;16.67;85.40;97928.13;5033318;28;20079;-78
2023/03/23 10:04:55;;;;;;;5.93;1.33;;;;;;;14.78;98.80;97925.50;5016447;28;20037;-79
2023/03/23 10:07:26;;;;;;;14.32;2.35;;;;;;;15.17;97.19;97912.19;5000441;28;20044;-79
2023/03/23 10:10:02;;;;;;;5.85;1.90;;;;;;;14.57;100.00;97908.50;5032850;28;20068;-79
2023/03/23 10:12:45;;;;;;;6.40;1.90;;;;;;;13.55;100.00;97920.75;5016693;28;20064;-78
2023/03/23 10:15:21;;;;;;;3.45;0.90;;;;;;;12.82;100.00;97909.81;5016531;28;20048;-77
2023/03/23 10:18:03;;;;;;;3.88;1.63;;;;;;;13.53;100.00;97901.28;5016144;28;20029;-77
2023/03/23 10:20:37;;;;;;;2.85;1.25;;;;;;;13.48;100.00;97913.97;5032926;28;20057;-77
2023/03/23 10:23:10;;;;;;;2.70;1.05;;;;;;;12.87;100.00;97909.84;5016060;28;20033;-80
2023/03/23 10:25:41;;;;;;;2.03;1.17;;;;;;;12.67;100.00;97902.44;5033919;28;20464;-78
2023/03/23 10:28:13;;;;;;;3.30;1.50;;;;;;;12.43;100.00;97890.41;5032692;28;20041;-78
2023/03/23 10:30:48;;;;;;;4.68;1.30;;;;;;;12.45;100.00;97920.59;5032825;28;20087;-78
2023/03/23 10:33:30;;;;;;;8.43;2.03;;;;;;;12.46;100.00;97908.75;5015641;28;20033;-78
2023/03/23 10:36:01;;;;;;;5.80;1.77;;;;;;;12.61;100.00;97911.56;5032316;28;20033;-78
2023/03/23 10:38:40;;;;;;;4.30;0.90;;;;;;;12.07;100.00;97920.56;5032684;28;20087;-79
2023/03/23 10:41:13;;;;;;;8.98;2.67;;;;;;;11.29;100.00;97913.72;5015991;28;20053;-79
2023/03/23 10:43:41;;;;;;;4.22;1.50;;;;;;;12.56;100.00;97908.81;5032538;28;20045;-78
2023/03/23 10:46:40;;;;;;;5.65;1.23;;;;;;;13.81;100.00;97913.53;5032428;28;20060;-78
2023/03/23 10:49:12;;;;;;;6.05;1.40;;;;;;;13.39;100.00;97902.88;5032607;28;20037;-79
2023/03/23 10:51:46;;;;;;;8.00;1.52;;;;;;;13.20;100.00;97911.38;5032336;28;20124;-78
2023/03/23 10:54:31;;;;;;;3.00;1.67;;;;;;;14.19;100.00;97905.22;5032392;28;20053;-78
2023/03/23 10:56:57;;;;;;;2.97;1.00;;;;;;;16.11;88.87;97906.84;5016198;28;20045;-78
2023/03/23 10:59:29;;;;;;;2.88;1.65;;;;;;;18.54;74.49;97912.81;5032320;28;20046;-77
2023/03/23 11:01:58;;;;;;;4.43;1.85;;;;;;;20.50;58.92;97911.31;5032383;28;20034;-77
2023/03/23 11:04:25;;;;;;;3.83;1.02;;;;;;;19.85;56.10;97907.91;5015254;28;20041;-74
2023/03/23 11:07:00;;;;;;;3.22;1.02;;;;;;;17.29;65.45;97903.09;4999128;28;20087;-73
2023/03/23 11:09:36;;;;;;;4.10;1.02;;;;;;;15.90;67.85;97905.38;5000048;28;20033;-75
2023/03/23 11:12:02;;;;;;;8.27;1.92;;;;;;;15.46;69.84;97887.16;5031560;28;20480;-74
2023/03/23 11:14:31;;;;;;;2.63;1.02;;;;;;;15.29;68.70;97873.94;4999424;28;20444;-74
2023/03/23 11:17:00;;;;;;;4.00;1.58;;;;;;;16.00;68.56;97891.75;4999475;28;20049;-76
2023/03/23 11:19:37;;;;;;;7.18;1.90;;;;;;;16.45;67.61;97887.88;5031282;28;20037;-74
2023/03/23 11:22:26;;;;;;;6.82;1.55;;;;;;;17.41;61.51;97883.66;5032017;28;20025;-74
2023/03/23 11:25:01;;;;;;;3.55;1.67;;;;;;;16.54;58.30;97882.69;5015666;28;20480;-76
2023/03/23 11:27:27;;;;;;;4.25;1.27;;;;;;;15.30;65.06;97870.97;5015704;28;20564;-74
2023/03/23 11:29:56;;;;;;;2.17;1.13;;;;;;;14.77;67.88;97896.84;4998713;28;20396;-74
2023/03/23 11:32:49;;;;;;;9.00;2.33;;;;;;;14.22;70.58;97869.53;5031668;28;20029;-73
2023/03/23 11:35:27;;;;;;;9.50;2.47;;;;;;;14.85;71.34;97882.75;4994761;28;20404;-74
2023/03/23 11:37:55;;;;;;;5.97;1.95;;;;;;;14.45;72.97;97882.50;5031853;28;20052;-73
2023/03/23 11:40:27;;;;;;;6.70;2.03;;;;;;;14.05;75.57;97880.59;5015359;28;20033;-73
2023/03/23 11:42:56;;;;;;;6.05;1.50;;;;;;;13.17;81.41;97860.63;4999132;28;20036;-73
2023/03/23 11:45:34;;;;;;;7.57;1.88;;;;;;;12.80;86.84;97852.63;5018119;28;20095;-74
2023/03/23 11:48:11;;;;;;;6.70;1.48;;;;;;;13.22;91.21;97870.63;5002532;28;20395;-76
2023/03/23 11:51:01;;;;;;;5.82;1.77;;;;;;;13.69;93.46;97872.44;5018217;28;20044;-74
2023/03/23 11:53:45;;;;;;;7.03;1.50;;;;;;;14.22;95.33;97864.13;4983104;28;20041;-75